createdAt,value
2023-08-05T00:00:18.821Z,83.62
2023-08-05T00:02:45.354Z,83.52
2023-08-05T00:05:12.123Z,83.60
2023-08-05T00:07:38.611Z,83.72
2023-08-05T00:10:05.525Z,83.78
2023-08-05T00:12:32.044Z,84.02
2023-08-05T00:14:58.762Z,83.77
2023-08-05T00:17:25.322Z,83.89
2023-08-05T00:19:51.798Z,83.77
2023-08-05T00:22:18.487Z,83.93
2023-08-05T00:24:45.101Z,83.70
2023-08-05T00:27:11.605Z,83.74
2023-08-05T00:29:38.083Z,83.80
2023-08-05T00:32:05.012Z,83.83
2023-08-05T00:34:31.501Z,83.99
2023-08-05T00:36:57.953Z,83.97
2023-08-05T00:39:24.377Z,83.72
2023-08-05T00:41:50.808Z,84.11
2023-08-05T00:44:17.228Z,83.88
2023-08-05T00:46:43.703Z,83.97
2023-08-05T00:49:10.970Z,84.22
2023-08-05T00:51:38.108Z,84.13
2023-08-05T00:54:05.048Z,84.09
2023-08-05T00:56:31.865Z,84.10
2023-08-05T00:58:58.544Z,84.31
2023-08-05T01:01:25.094Z,84.47
2023-08-05T01:03:51.678Z,84.40
2023-08-05T01:06:20.629Z,84.21
2023-08-05T01:08:48.439Z,84.58
2023-08-05T01:11:15.806Z,84.55
2023-08-05T01:13:43.340Z,84.53
2023-08-05T01:16:09.908Z,84.49
2023-08-05T01:18:38.548Z,84.65
2023-08-05T01:21:12.354Z,84.56
2023-08-05T01:23:57.652Z,84.50
2023-08-05T01:26:24.837Z,84.45
2023-08-05T01:28:51.522Z,84.42
2023-08-05T01:31:18.471Z,84.51
2023-08-05T01:33:45.648Z,84.47
2023-08-05T01:36:30.885Z,84.45
2023-08-05T01:38:57.421Z,84.37
2023-08-05T01:41:23.964Z,84.39
2023-08-05T01:43:50.441Z,84.29
2023-08-05T01:46:16.932Z,84.62
2023-08-05T01:48:43.379Z,84.44
2023-08-05T01:51:09.831Z,84.32
2023-08-05T01:53:36.281Z,84.51
2023-08-05T01:56:02.696Z,84.54
2023-08-05T01:58:29.131Z,84.53
2023-08-05T02:00:55.630Z,84.49
2023-08-05T02:03:22.349Z,84.41
2023-08-05T02:05:48.989Z,84.44
2023-08-05T02:08:15.496Z,84.44
2023-08-05T02:10:42.382Z,84.44
2023-08-05T02:13:08.970Z,84.43
2023-08-05T02:15:35.473Z,84.72
2023-08-05T02:18:02.959Z,84.61
2023-08-05T02:20:29.515Z,84.39
2023-08-05T02:22:55.913Z,84.45
2023-08-05T02:25:22.433Z,84.69
2023-08-05T02:27:50.731Z,84.45
2023-08-05T02:30:17.409Z,84.59
2023-08-05T02:32:43.856Z,84.63
2023-08-05T02:35:10.421Z,84.66
2023-08-05T02:37:36.886Z,84.86
2023-08-05T02:40:04.303Z,84.76
2023-08-05T02:42:30.762Z,84.95
2023-08-05T02:44:57.221Z,85.07
2023-08-05T02:47:23.753Z,85.07
2023-08-05T02:49:50.194Z,85.28
2023-08-05T02:52:16.659Z,85.32
2023-08-05T02:54:43.103Z,85.09
2023-08-05T02:57:09.546Z,85.43
2023-08-05T02:59:35.928Z,85.26
2023-08-05T03:02:02.378Z,85.25
2023-08-05T03:04:28.890Z,85.42
2023-08-05T03:06:55.360Z,85.32
2023-08-05T03:09:22.035Z,85.31
2023-08-05T03:11:49.200Z,85.43
2023-08-05T03:14:15.683Z,85.37
2023-08-05T03:16:42.681Z,85.28
2023-08-05T03:19:09.224Z,85.16
2023-08-05T03:21:35.700Z,85.43
2023-08-05T03:24:02.138Z,85.20
2023-08-05T03:26:28.620Z,85.46
2023-08-05T03:28:55.114Z,85.35
2023-08-05T03:31:21.642Z,85.56
2023-08-05T03:33:48.128Z,85.50
2023-08-05T03:36:14.550Z,85.29
2023-08-05T03:38:41.017Z,85.34
2023-08-05T03:41:07.565Z,85.48
2023-08-05T03:43:34.107Z,85.56
2023-08-05T03:46:00.686Z,85.63
2023-08-05T03:48:27.159Z,85.42
2023-08-05T03:50:53.703Z,85.80
2023-08-05T03:53:20.199Z,85.71
2023-08-05T03:55:46.796Z,85.49
2023-08-05T03:58:13.241Z,85.39
2023-08-05T04:00:43.945Z,85.59
2023-08-05T04:03:10.540Z,85.71
2023-08-05T04:05:37.064Z,85.63
2023-08-05T04:08:03.727Z,85.66
2023-08-05T04:10:32.085Z,85.43
2023-08-05T04:12:58.529Z,85.53
2023-08-05T04:15:28.928Z,85.61
2023-08-05T04:18:00.606Z,85.52
2023-08-05T04:20:28.538Z,85.64
2023-08-05T04:22:55.271Z,85.47
2023-08-05T04:25:21.780Z,85.45
2023-08-05T04:27:48.216Z,85.51
2023-08-05T04:30:14.726Z,85.58
2023-08-05T04:32:41.335Z,85.52
2023-08-05T04:35:08.166Z,85.51
2023-08-05T04:37:34.663Z,85.84
2023-08-05T04:40:01.075Z,85.50
2023-08-05T04:42:27.563Z,85.57
2023-08-05T04:44:54.024Z,85.52
2023-08-05T04:47:20.482Z,85.53
2023-08-05T04:49:46.984Z,85.58
2023-08-05T04:52:15.075Z,85.24
2023-08-05T04:54:44.620Z,85.82
2023-08-05T04:57:12.376Z,85.54
2023-08-05T04:59:38.859Z,85.59
2023-08-05T05:02:05.613Z,85.70
2023-08-05T05:04:32.093Z,85.66
2023-08-05T05:06:59.151Z,85.66
2023-08-05T05:09:25.652Z,85.70
2023-08-05T05:11:54.880Z,85.49
2023-08-05T05:14:21.785Z,85.21
2023-08-05T05:16:48.818Z,85.63
2023-08-05T05:19:15.709Z,85.41
2023-08-05T05:21:42.129Z,85.30
2023-08-05T05:24:09.617Z,85.48
2023-08-05T05:26:36.081Z,85.54
2023-08-05T05:29:02.606Z,85.40
2023-08-05T05:31:29.238Z,85.20
2023-08-05T05:33:55.869Z,85.45
2023-08-05T05:36:22.318Z,85.40
2023-08-05T05:38:48.857Z,85.57
2023-08-05T05:41:17.177Z,85.54
2023-08-05T05:43:43.707Z,85.22
2023-08-05T05:46:10.763Z,85.34
2023-08-05T05:48:37.278Z,85.35
2023-08-05T05:51:03.858Z,85.21
2023-08-05T05:53:30.274Z,85.33
2023-08-05T05:55:56.820Z,85.20
2023-08-05T05:58:23.290Z,85.23
2023-08-05T06:00:55.780Z,84.97
2023-08-05T06:03:22.521Z,84.89
2023-08-05T06:05:51.608Z,84.88
2023-08-05T06:08:18.474Z,84.84
2023-08-05T06:10:45.269Z,84.79
2023-08-05T06:13:11.928Z,84.81
2023-08-05T06:15:42.580Z,84.62
2023-08-05T06:18:09.950Z,84.63
2023-08-05T06:20:37.374Z,84.51
2023-08-05T06:23:04.345Z,84.37
2023-08-05T06:25:30.773Z,84.33
2023-08-05T06:27:57.244Z,84.58
2023-08-05T06:30:24.036Z,84.21
2023-08-05T06:32:50.807Z,83.99
2023-08-05T06:35:17.463Z,84.00
2023-08-05T06:37:45.014Z,84.01
2023-08-05T06:40:12.285Z,83.81
2023-08-05T06:42:38.802Z,83.89
2023-08-05T06:45:05.936Z,83.66
2023-08-05T06:47:32.707Z,83.68
2023-08-05T06:49:59.491Z,83.59
2023-08-05T06:52:26.170Z,83.52
2023-08-05T06:54:52.622Z,83.42
2023-08-05T06:57:19.371Z,83.21
2023-08-05T06:59:47.046Z,83.48
2023-08-05T07:02:13.657Z,83.21
2023-08-05T07:04:40.159Z,83.18
2023-08-05T07:07:06.742Z,83.01
2023-08-05T07:09:33.521Z,82.91
2023-08-05T07:11:59.987Z,83.03
2023-08-05T07:14:26.831Z,82.85
2023-08-05T07:16:53.302Z,82.54
2023-08-05T07:19:19.788Z,82.65
2023-08-05T07:21:46.296Z,82.39
2023-08-05T07:24:12.809Z,82.07
2023-08-05T07:26:39.258Z,82.17
2023-08-05T07:29:05.700Z,82.03
2023-08-05T07:31:32.152Z,81.93
2023-08-05T07:33:58.729Z,81.74
2023-08-05T07:36:28.081Z,81.39
2023-08-05T07:38:55.650Z,81.16
2023-08-05T07:41:24.539Z,80.92
2023-08-05T07:43:52.146Z,81.13
2023-08-05T07:46:20.477Z,81.02
2023-08-05T07:48:51.098Z,80.51
2023-08-05T07:51:19.520Z,80.41
2023-08-05T07:53:49.116Z,80.33
2023-08-05T07:56:16.726Z,80.38
2023-08-05T07:58:47.564Z,79.94
2023-08-05T08:01:20.497Z,79.36
2023-08-05T08:03:49.007Z,78.91
2023-08-05T08:06:18.786Z,78.71
2023-08-05T08:08:47.550Z,78.46
2023-08-05T08:11:14.573Z,78.68
2023-08-05T08:13:41.898Z,78.49
2023-08-05T08:16:08.679Z,78.57
2023-08-05T08:18:35.311Z,78.78
2023-08-05T08:21:01.792Z,78.39
2023-08-05T08:23:28.246Z,77.88
2023-08-05T08:25:57.972Z,77.86
2023-08-05T08:28:24.442Z,77.78
2023-08-05T08:30:58.120Z,77.53
2023-08-05T08:33:26.465Z,76.64
2023-08-05T08:35:53.373Z,76.32
2023-08-05T08:38:20.376Z,76.27
2023-08-05T08:40:51.744Z,76.46
2023-08-05T08:43:20.087Z,75.46
2023-08-05T08:45:54.442Z,74.96
2023-08-05T08:48:24.575Z,74.53
2023-08-05T08:50:54.099Z,74.32
2023-08-05T08:53:22.146Z,74.52
2023-08-05T08:55:50.177Z,74.58
2023-08-05T08:58:16.904Z,74.70
2023-08-05T09:00:43.495Z,74.13
2023-08-05T09:03:11.059Z,72.85
2023-08-05T09:05:55.125Z,72.13
2023-08-05T09:08:21.618Z,72.18
2023-08-05T09:10:48.066Z,71.84
2023-08-05T09:13:18.270Z,71.89
2023-08-05T09:15:46.630Z,72.15
2023-08-05T09:18:13.210Z,71.78
2023-08-05T09:20:39.925Z,71.06
2023-08-05T09:23:08.555Z,71.69
2023-08-05T09:25:41.498Z,72.42
2023-08-05T09:28:08.173Z,72.49
2023-08-05T09:30:36.046Z,70.94
2023-08-05T09:33:03.079Z,69.40
2023-08-05T09:35:30.375Z,68.69
2023-08-05T09:37:57.255Z,68.45
2023-08-05T09:40:34.052Z,67.30
2023-08-05T09:43:01.335Z,67.95
2023-08-05T09:45:35.015Z,68.84
2023-08-05T09:48:08.765Z,70.03
2023-08-05T09:50:38.502Z,70.52
2023-08-05T09:53:07.776Z,70.65
2023-08-05T09:55:35.607Z,70.31
2023-08-05T09:58:02.650Z,69.19
2023-08-05T10:00:29.531Z,67.86
2023-08-05T10:02:56.759Z,68.24
2023-08-05T10:05:26.123Z,68.75
2023-08-05T10:07:54.334Z,69.09
2023-08-05T10:10:22.019Z,69.14
2023-08-05T10:13:10.305Z,69.14
2023-08-05T10:15:41.802Z,69.21
2023-08-05T10:18:12.088Z,69.47
2023-08-05T10:20:39.444Z,69.46
2023-08-05T10:23:08.708Z,68.95
2023-08-05T10:26:01.902Z,68.87
2023-08-05T10:28:34.392Z,68.86
2023-08-05T10:31:04.893Z,68.70
2023-08-05T10:33:31.451Z,68.46
2023-08-05T10:36:08.625Z,68.08
2023-08-05T10:38:42.511Z,67.96
2023-08-05T10:41:11.345Z,67.98
2023-08-05T10:43:42.660Z,68.12
2023-08-05T10:46:09.132Z,67.30
2023-08-05T10:48:44.666Z,67.36
2023-08-05T10:51:15.639Z,67.43
2023-08-05T10:53:59.649Z,67.00
2023-08-05T10:56:31.062Z,66.41
2023-08-05T10:59:00.447Z,65.36
2023-08-05T11:01:55.741Z,64.37
2023-08-05T11:04:27.755Z,63.52
2023-08-05T11:06:55.883Z,62.89
2023-08-05T11:09:23.568Z,62.59
2023-08-05T11:11:50.564Z,62.42
2023-08-05T11:14:17.817Z,62.88
2023-08-05T11:16:47.751Z,63.07
2023-08-05T11:19:14.619Z,63.16
2023-08-05T11:21:45.496Z,63.31
2023-08-05T11:24:19.101Z,63.49
2023-08-05T11:26:47.565Z,63.51
2023-08-05T11:29:17.576Z,63.33
2023-08-05T11:31:51.612Z,63.02
2023-08-05T11:34:25.696Z,63.13
2023-08-05T11:36:58.257Z,63.03
2023-08-05T11:39:25.671Z,63.07
2023-08-05T11:41:53.837Z,62.42
2023-08-05T11:44:21.257Z,61.95
2023-08-05T11:46:58.771Z,60.84
2023-08-05T11:49:27.542Z,60.08
2023-08-05T11:51:55.037Z,59.38
2023-08-05T11:54:39.854Z,59.22
2023-08-05T11:57:27.094Z,58.69
2023-08-05T11:59:56.193Z,59.03
2023-08-05T12:02:25.549Z,58.70
2023-08-05T12:05:00.125Z,57.88
2023-08-05T12:07:28.736Z,58.04
2023-08-05T12:10:31.146Z,58.58
2023-08-05T12:12:57.744Z,57.84
2023-08-05T12:15:28.037Z,57.22
2023-08-05T12:17:56.543Z,57.02
2023-08-05T12:20:28.297Z,56.29
2023-08-05T12:22:57.526Z,55.38
2023-08-05T12:25:25.697Z,55.66
2023-08-05T12:27:53.028Z,55.36
2023-08-05T12:30:19.811Z,55.27
2023-08-05T12:32:46.414Z,55.69
2023-08-05T12:35:13.568Z,55.91
2023-08-05T12:37:41.190Z,56.67
2023-08-05T12:40:12.864Z,56.61
2023-08-05T12:42:40.329Z,56.86
2023-08-05T12:45:10.254Z,55.77
2023-08-05T12:47:38.800Z,55.12
2023-08-05T12:50:06.610Z,55.08
2023-08-05T12:52:33.551Z,55.20
2023-08-05T12:55:00.225Z,55.22
2023-08-05T12:57:26.979Z,55.35
2023-08-05T12:59:53.555Z,55.00
2023-08-05T13:02:23.038Z,55.46
2023-08-05T13:04:52.677Z,55.59
2023-08-05T13:07:20.004Z,55.66
2023-08-05T13:09:46.649Z,55.88
2023-08-05T13:12:14.468Z,56.07
2023-08-05T13:14:41.203Z,56.18
2023-08-05T13:17:07.722Z,56.58
2023-08-05T13:19:34.255Z,56.60
2023-08-05T13:22:00.819Z,56.90
2023-08-05T13:24:27.665Z,56.78
2023-08-05T13:26:54.189Z,56.73
2023-08-05T13:29:20.675Z,56.75
2023-08-05T13:31:47.154Z,56.87
2023-08-05T13:34:13.595Z,56.90
2023-08-05T13:36:40.168Z,56.78
2023-08-05T13:39:06.658Z,56.89
2023-08-05T13:41:33.463Z,56.85
2023-08-05T13:44:00.040Z,56.70
2023-08-05T13:46:26.481Z,56.72
2023-08-05T13:48:53.071Z,56.63
2023-08-05T13:51:19.468Z,56.40
2023-08-05T13:53:45.980Z,56.10
2023-08-05T13:56:12.426Z,55.90
2023-08-05T13:58:38.885Z,55.41
2023-08-05T14:01:05.826Z,54.90
2023-08-05T14:03:32.387Z,54.35
2023-08-05T14:05:59.587Z,54.51
2023-08-05T14:08:29.999Z,54.39
2023-08-05T14:10:56.508Z,54.48
2023-08-05T14:13:23.226Z,54.78
2023-08-05T14:15:53.515Z,55.17
2023-08-05T14:18:23.151Z,55.26
2023-08-05T14:20:50.094Z,55.28
2023-08-05T14:23:16.985Z,55.21
2023-08-05T14:25:46.241Z,55.54
2023-08-05T14:28:13.390Z,55.42
2023-08-05T14:30:40.822Z,55.50
2023-08-05T14:33:08.202Z,55.27
2023-08-05T14:35:35.754Z,54.92
2023-08-05T14:38:03.252Z,55.00
2023-08-05T14:40:34.056Z,54.99
2023-08-05T14:43:01.596Z,55.12
2023-08-05T14:45:28.639Z,55.38
2023-08-05T14:47:55.279Z,54.77
2023-08-05T14:50:21.844Z,55.03
2023-08-05T14:52:49.090Z,54.82
2023-08-05T14:55:16.442Z,54.25
2023-08-05T14:57:43.155Z,53.39
2023-08-05T15:00:13.147Z,52.66
2023-08-05T15:02:39.898Z,52.67
2023-08-05T15:05:07.156Z,52.79
2023-08-05T15:07:33.769Z,52.50
2023-08-05T15:10:00.337Z,52.79
2023-08-05T15:12:26.815Z,52.72
2023-08-05T15:14:53.252Z,52.98
2023-08-05T15:17:19.761Z,52.89
2023-08-05T15:19:46.188Z,52.31
2023-08-05T15:22:14.137Z,51.85
2023-08-05T15:24:40.777Z,52.02
2023-08-05T15:27:07.351Z,51.68
2023-08-05T15:29:33.922Z,51.72
2023-08-05T15:32:01.585Z,51.61
2023-08-05T15:34:30.754Z,51.40
2023-08-05T15:36:57.516Z,51.02
2023-08-05T15:39:24.566Z,50.39
2023-08-05T15:41:53.100Z,50.46
2023-08-05T15:44:19.801Z,50.50
2023-08-05T15:46:46.322Z,50.96
2023-08-05T15:49:12.740Z,51.68
2023-08-05T15:51:39.226Z,52.07
2023-08-05T15:54:05.754Z,51.92
2023-08-05T15:56:32.323Z,51.67
2023-08-05T15:58:58.814Z,51.45
2023-08-05T16:01:25.650Z,51.71
2023-08-05T16:03:52.344Z,51.06
2023-08-05T16:06:18.990Z,51.30
2023-08-05T16:08:45.595Z,51.47
2023-08-05T16:11:13.723Z,52.61
2023-08-05T16:13:40.719Z,52.80
2023-08-05T16:16:16.479Z,52.52
2023-08-05T16:18:44.295Z,52.19
2023-08-05T16:21:18.598Z,52.06
2023-08-05T16:23:46.581Z,52.31
2023-08-05T16:26:15.346Z,52.62
2023-08-05T16:28:42.392Z,52.70
2023-08-05T16:31:09.097Z,53.25
2023-08-05T16:33:36.638Z,53.08
2023-08-05T16:36:05.287Z,53.51
2023-08-05T16:38:32.771Z,53.47
2023-08-05T16:40:59.795Z,53.78
2023-08-05T16:43:26.402Z,53.85
2023-08-05T16:45:53.235Z,53.80
2023-08-05T16:48:20.084Z,54.01
2023-08-05T16:50:46.824Z,53.70
2023-08-05T16:53:13.772Z,53.78
2023-08-05T16:55:40.677Z,53.79
2023-08-05T16:58:07.414Z,53.90
2023-08-05T17:00:34.282Z,53.94
2023-08-05T17:03:00.960Z,53.96
2023-08-05T17:05:27.449Z,54.08
2023-08-05T17:07:53.988Z,54.14
2023-08-05T17:10:21.091Z,54.16
2023-08-05T17:12:47.701Z,54.12
2023-08-05T17:15:14.309Z,54.34
2023-08-05T17:17:40.866Z,54.37
2023-08-05T17:20:08.366Z,54.29
2023-08-05T17:22:34.953Z,54.30
2023-08-05T17:25:02.025Z,54.58
2023-08-05T17:27:28.529Z,54.46
2023-08-05T17:29:55.188Z,54.41
2023-08-05T17:32:21.759Z,54.58
2023-08-05T17:34:48.307Z,54.66
2023-08-05T17:37:14.909Z,54.69
2023-08-05T17:39:42.782Z,54.86
2023-08-05T17:42:09.503Z,55.01
2023-08-05T17:44:36.143Z,55.15
2023-08-05T17:47:03.238Z,55.40
2023-08-05T17:49:29.783Z,55.31
2023-08-05T17:51:56.331Z,55.59
2023-08-05T17:54:22.808Z,55.47
2023-08-05T17:56:49.386Z,55.61
2023-08-05T17:59:16.621Z,55.55
2023-08-05T18:01:44.515Z,55.62
2023-08-05T18:04:19.936Z,55.56
2023-08-05T18:06:46.824Z,55.62
2023-08-05T18:09:13.561Z,55.67
2023-08-05T18:11:40.033Z,55.91
2023-08-05T18:14:06.828Z,56.67
2023-08-05T18:16:33.426Z,57.53
2023-08-05T18:19:00.254Z,58.45
2023-08-05T18:21:27.165Z,59.56
2023-08-05T18:23:53.680Z,60.81
2023-08-05T18:26:23.075Z,61.68
2023-08-05T18:28:50.856Z,62.62
2023-08-05T18:31:18.394Z,63.33
2023-08-05T18:33:45.281Z,64.45
2023-08-05T18:36:11.920Z,64.81
2023-08-05T18:38:38.484Z,65.57
2023-08-05T18:41:06.653Z,66.49
2023-08-05T18:43:33.673Z,67.02
2023-08-05T18:46:00.773Z,67.40
2023-08-05T18:48:27.466Z,67.74
2023-08-05T18:50:54.027Z,68.21
2023-08-05T18:53:20.576Z,68.72
2023-08-05T18:55:48.232Z,68.78
2023-08-05T18:58:14.894Z,69.35
2023-08-05T19:00:41.825Z,69.77
2023-08-05T19:03:08.562Z,69.99
2023-08-05T19:05:35.277Z,70.25
2023-08-05T19:08:01.847Z,70.48
2023-08-05T19:10:28.370Z,71.06
2023-08-05T19:12:54.866Z,71.53
2023-08-05T19:15:21.301Z,71.83
2023-08-05T19:17:48.004Z,72.36
2023-08-05T19:20:16.644Z,72.81
2023-08-05T19:22:49.087Z,73.16
2023-08-05T19:25:15.608Z,73.46
2023-08-05T19:27:53.464Z,73.40
2023-08-05T19:30:24.844Z,73.78
2023-08-05T19:32:54.287Z,73.74
2023-08-05T19:35:25.325Z,74.01
2023-08-05T19:37:51.725Z,74.36
2023-08-05T19:40:18.148Z,74.42
2023-08-05T19:42:44.608Z,74.37
2023-08-05T19:45:11.062Z,74.56
2023-08-05T19:47:41.806Z,75.02
2023-08-05T19:50:08.993Z,75.18
2023-08-05T19:52:35.429Z,75.31
2023-08-05T19:55:01.901Z,75.49
2023-08-05T19:57:29.577Z,75.53
2023-08-05T19:59:56.072Z,75.60
2023-08-05T20:02:22.607Z,76.11
2023-08-05T20:04:49.175Z,76.44
2023-08-05T20:07:15.641Z,76.56
2023-08-05T20:09:42.023Z,76.41
2023-08-05T20:12:08.834Z,76.49
2023-08-05T20:14:36.512Z,76.66
2023-08-05T20:17:02.929Z,76.93
2023-08-05T20:19:29.365Z,76.97
2023-08-05T20:21:57.610Z,77.42
2023-08-05T20:24:24.108Z,77.39
2023-08-05T20:26:50.796Z,77.62
2023-08-05T20:29:17.287Z,77.85
2023-08-05T20:31:43.769Z,77.72
2023-08-05T20:34:10.251Z,78.05
2023-08-05T20:36:37.464Z,78.11
2023-08-05T20:39:05.719Z,78.39
2023-08-05T20:41:32.160Z,78.27
2023-08-05T20:43:58.613Z,78.55
2023-08-05T20:46:25.016Z,78.70
2023-08-05T20:48:51.478Z,78.74
2023-08-05T20:51:19.035Z,78.77
2023-08-05T20:53:45.829Z,78.83
2023-08-05T20:56:13.455Z,78.67
2023-08-05T20:58:40.319Z,78.96
2023-08-05T21:01:13.378Z,78.94
2023-08-05T21:03:40.267Z,78.99
2023-08-05T21:06:06.790Z,79.30
2023-08-05T21:08:33.529Z,79.25
2023-08-05T21:11:10.593Z,79.80
2023-08-05T21:13:38.764Z,79.66
2023-08-05T21:16:09.246Z,80.36
2023-08-05T21:18:35.816Z,81.16
2023-08-05T21:21:02.673Z,81.67
2023-08-05T21:23:29.399Z,82.44
2023-08-05T21:25:55.945Z,82.27
2023-08-05T21:28:22.422Z,82.24
2023-08-05T21:30:58.213Z,82.63
2023-08-05T21:33:25.141Z,82.20
2023-08-05T21:35:51.589Z,82.49
2023-08-05T21:38:18.074Z,82.52
2023-08-05T21:40:49.465Z,82.74
2023-08-05T21:43:17.444Z,82.68
2023-08-05T21:45:57.960Z,82.85
2023-08-05T21:48:25.678Z,82.85
2023-08-05T21:50:52.324Z,82.88
2023-08-05T21:53:18.935Z,83.09
2023-08-05T21:55:45.871Z,83.17
2023-08-05T21:58:12.750Z,83.34
2023-08-05T22:00:39.988Z,83.36
2023-08-05T22:03:07.374Z,83.35
2023-08-05T22:05:33.947Z,83.71
2023-08-05T22:08:00.456Z,83.47
2023-08-05T22:10:27.070Z,83.58
2023-08-05T22:12:53.505Z,83.84
2023-08-05T22:15:20.038Z,83.85
2023-08-05T22:17:48.193Z,83.69
2023-08-05T22:20:14.847Z,83.64
2023-08-05T22:22:41.447Z,84.00
2023-08-05T22:25:08.845Z,83.77
2023-08-05T22:27:35.453Z,83.62
2023-08-05T22:30:01.958Z,83.83
2023-08-05T22:32:28.558Z,83.94
2023-08-05T22:34:55.611Z,84.07
2023-08-05T22:37:22.358Z,83.79
2023-08-05T22:39:48.847Z,83.94
2023-08-05T22:42:15.338Z,83.82
2023-08-05T22:44:41.956Z,84.06
2023-08-05T22:47:08.380Z,83.81
2023-08-05T22:49:34.869Z,84.17
2023-08-05T22:52:01.300Z,83.94
2023-08-05T22:54:27.842Z,84.07
2023-08-05T22:56:54.358Z,84.31
2023-08-05T22:59:20.777Z,84.44
2023-08-05T23:01:47.196Z,84.47
2023-08-05T23:04:13.666Z,84.41
2023-08-05T23:06:40.312Z,84.51
2023-08-05T23:09:06.722Z,84.46
2023-08-05T23:11:33.201Z,84.53
2023-08-05T23:13:59.685Z,84.61
2023-08-05T23:16:26.154Z,84.52
2023-08-05T23:18:52.608Z,84.56
2023-08-05T23:21:19.084Z,84.57
2023-08-05T23:23:45.736Z,84.88
2023-08-05T23:26:12.283Z,84.89
2023-08-05T23:28:38.752Z,84.86
2023-08-05T23:31:06.177Z,84.96
2023-08-05T23:33:33.641Z,84.80
2023-08-05T23:36:00.386Z,84.87
2023-08-05T23:38:27.211Z,84.96
2023-08-05T23:40:53.710Z,84.76
2023-08-05T23:43:20.259Z,85.10
2023-08-05T23:45:48.310Z,84.89
2023-08-05T23:48:15.657Z,84.97
2023-08-05T23:50:42.481Z,85.07
2023-08-05T23:53:09.349Z,85.16
2023-08-05T23:55:35.815Z,85.24
2023-08-05T23:58:02.396Z,85.21
